createdAt,value
2022-11-23T00:00:43.210Z,7.19
2022-11-23T00:03:15.230Z,7.19
2022-11-23T00:05:42.461Z,7.20
2022-11-23T00:08:09.533Z,7.20
2022-11-23T00:10:36.687Z,7.20
2022-11-23T00:13:03.806Z,7.22
2022-11-23T00:15:30.977Z,7.23
2022-11-23T00:17:58.613Z,7.22
2022-11-23T00:20:25.961Z,7.24
2022-11-23T00:22:53.010Z,7.24
2022-11-23T00:25:20.079Z,7.25
2022-11-23T00:27:47.253Z,7.26
2022-11-23T00:30:14.901Z,7.25
2022-11-23T00:32:42.147Z,7.25
2022-11-23T00:35:09.273Z,7.25
2022-11-23T00:37:36.422Z,7.25
2022-11-23T00:40:03.798Z,7.23
2022-11-23T00:42:36.560Z,7.23
2022-11-23T00:45:05.320Z,7.23
2022-11-23T00:47:32.418Z,7.23
2022-11-23T00:49:59.675Z,7.22
2022-11-23T00:52:26.845Z,7.20
2022-11-23T00:54:53.963Z,7.20
2022-11-23T00:57:21.109Z,7.20
2022-11-23T00:59:48.534Z,7.19
2022-11-23T01:02:16.390Z,7.17
2022-11-23T01:04:43.557Z,7.17
2022-11-23T01:07:10.692Z,7.17
2022-11-23T01:09:38.017Z,7.15
2022-11-23T01:12:06.704Z,7.17
2022-11-23T01:14:33.825Z,7.16
2022-11-23T01:17:04.297Z,7.17
2022-11-23T01:19:34.982Z,7.18
2022-11-23T01:22:02.185Z,7.19
2022-11-23T01:24:29.354Z,7.19
2022-11-23T01:26:56.546Z,7.20
2022-11-23T01:29:24.332Z,7.22
2022-11-23T01:31:51.518Z,7.21
2022-11-23T01:34:18.829Z,7.22
2022-11-23T01:36:46.108Z,7.23
2022-11-23T01:39:13.437Z,7.24
2022-11-23T01:41:43.511Z,7.25
2022-11-23T01:44:28.617Z,7.26
2022-11-23T01:46:59.256Z,7.26
2022-11-23T01:49:30.125Z,7.28
2022-11-23T01:52:03.280Z,7.28
2022-11-23T01:54:41.246Z,7.28
2022-11-23T01:57:16.139Z,7.28
2022-11-23T01:59:45.703Z,7.29
2022-11-23T02:02:13.770Z,7.30
2022-11-23T02:04:45.875Z,7.30
2022-11-23T02:07:17.058Z,7.29
2022-11-23T02:09:45.845Z,7.32
2022-11-23T02:12:14.355Z,7.31
2022-11-23T02:14:44.768Z,7.32
2022-11-23T02:17:12.109Z,7.26
2022-11-23T02:19:58.933Z,7.32
2022-11-23T02:22:49.425Z,7.34
2022-11-23T02:25:44.825Z,7.36
2022-11-23T02:28:16.247Z,7.39
2022-11-23T02:30:47.100Z,7.40
2022-11-23T02:33:14.264Z,7.43
2022-11-23T02:35:56.915Z,7.42
2022-11-23T02:38:26.957Z,7.45
2022-11-23T02:40:57.002Z,7.47
2022-11-23T02:43:24.874Z,7.47
2022-11-23T02:46:03.546Z,7.48
2022-11-23T02:48:30.797Z,7.50
2022-11-23T02:50:57.912Z,7.50
2022-11-23T02:53:25.258Z,7.50
2022-11-23T02:55:54.569Z,7.51
2022-11-23T02:58:21.637Z,7.50
2022-11-23T03:00:48.999Z,7.50
2022-11-23T03:03:20.021Z,7.48
2022-11-23T03:05:47.076Z,7.47
2022-11-23T03:08:14.380Z,7.43
2022-11-23T03:10:41.490Z,7.41
2022-11-23T03:13:09.154Z,7.40
2022-11-23T03:15:38.566Z,7.36
2022-11-23T03:18:06.548Z,7.32
2022-11-23T03:20:34.217Z,7.30
2022-11-23T03:23:01.395Z,7.26
2022-11-23T03:25:28.674Z,7.25
2022-11-23T03:27:57.203Z,7.26
2022-11-23T03:30:24.350Z,7.26
2022-11-23T03:32:51.794Z,7.25
2022-11-23T03:35:20.281Z,7.26
2022-11-23T03:38:07.829Z,7.25
2022-11-23T03:40:34.952Z,7.26
2022-11-23T03:43:12.254Z,7.28
2022-11-23T03:45:39.862Z,7.28
2022-11-23T03:48:07.364Z,7.27
2022-11-23T03:50:34.620Z,7.26
2022-11-23T03:53:01.672Z,7.25
2022-11-23T03:55:29.552Z,7.24
2022-11-23T03:57:56.734Z,7.23
2022-11-23T04:00:23.856Z,7.23
2022-11-23T04:02:51.065Z,7.21
2022-11-23T04:05:36.829Z,7.19
2022-11-23T04:08:27.892Z,7.15
2022-11-23T04:10:57.541Z,7.15
2022-11-23T04:13:34.473Z,7.12
2022-11-23T04:16:01.627Z,7.10
2022-11-23T04:18:28.724Z,7.09
2022-11-23T04:20:55.957Z,7.06
2022-11-23T04:23:23.001Z,7.06
2022-11-23T04:25:50.887Z,7.05
2022-11-23T04:28:19.426Z,7.04
2022-11-23T04:30:48.861Z,7.03
2022-11-23T04:33:16.348Z,7.02
2022-11-23T04:35:47.126Z,7.02
2022-11-23T04:38:15.220Z,7.00
2022-11-23T04:40:43.305Z,6.99
2022-11-23T04:43:11.133Z,6.92
2022-11-23T04:45:40.578Z,6.98
2022-11-23T04:48:13.488Z,6.97
2022-11-23T04:50:46.471Z,6.98
2022-11-23T04:53:17.474Z,6.96
2022-11-23T04:55:47.242Z,6.96
2022-11-23T04:58:15.902Z,6.95
2022-11-23T05:00:43.038Z,6.94
2022-11-23T05:03:12.132Z,6.95
2022-11-23T05:05:41.449Z,6.94
2022-11-23T05:08:09.511Z,6.94
2022-11-23T05:10:52.057Z,6.95
2022-11-23T05:13:19.699Z,6.95
2022-11-23T05:15:48.465Z,6.95
2022-11-23T05:18:20.386Z,6.95
2022-11-23T05:20:49.633Z,6.95
2022-11-23T05:23:17.156Z,6.93
2022-11-23T05:25:45.865Z,6.93
2022-11-23T05:28:38.895Z,6.93
2022-11-23T05:31:05.846Z,6.90
2022-11-23T05:33:33.255Z,6.89
2022-11-23T05:36:01.497Z,6.90
2022-11-23T05:38:36.564Z,6.87
2022-11-23T05:41:09.030Z,6.86
2022-11-23T05:43:39.334Z,6.84
2022-11-23T05:46:08.563Z,6.83
2022-11-23T05:48:37.173Z,6.81
2022-11-23T05:51:09.340Z,6.80
2022-11-23T05:53:40.964Z,6.79
2022-11-23T05:56:15.443Z,6.77
2022-11-23T05:58:56.842Z,6.76
2022-11-23T06:01:24.116Z,6.67
2022-11-23T06:03:53.285Z,6.70
2022-11-23T06:06:20.468Z,6.70
2022-11-23T06:08:49.227Z,6.70
2022-11-23T06:11:17.698Z,6.69
2022-11-23T06:13:47.703Z,6.68
2022-11-23T06:16:15.942Z,6.69
2022-11-23T06:18:55.225Z,6.69
2022-11-23T06:21:22.290Z,6.70
2022-11-23T06:23:49.595Z,6.69
2022-11-23T06:26:17.557Z,6.69
2022-11-23T06:28:44.727Z,6.67
2022-11-23T06:31:11.804Z,6.66
2022-11-23T06:33:38.926Z,6.66
2022-11-23T06:36:06.355Z,6.66
2022-11-23T06:38:41.661Z,6.66
2022-11-23T06:41:15.692Z,6.66
2022-11-23T06:43:42.850Z,6.66
2022-11-23T06:46:11.560Z,6.66
2022-11-23T06:48:45.695Z,6.66
2022-11-23T06:51:15.015Z,6.67
2022-11-23T06:53:43.439Z,6.67
2022-11-23T06:56:13.109Z,6.68
2022-11-23T06:58:40.944Z,6.69
2022-11-23T07:01:12.163Z,6.71
2022-11-23T07:03:45.699Z,6.72
2022-11-23T07:06:21.701Z,6.74
2022-11-23T07:08:56.964Z,6.76
2022-11-23T07:11:38.704Z,6.79
2022-11-23T07:14:06.046Z,6.81
2022-11-23T07:16:35.324Z,6.85
2022-11-23T07:19:02.678Z,6.86
2022-11-23T07:21:29.808Z,6.88
2022-11-23T07:23:56.886Z,6.92
2022-11-23T07:26:24.169Z,6.93
2022-11-23T07:28:51.239Z,6.96
2022-11-23T07:31:18.352Z,6.97
2022-11-23T07:33:46.681Z,6.99
2022-11-23T07:36:14.577Z,7.02
2022-11-23T07:38:43.602Z,7.04
2022-11-23T07:41:14.070Z,7.06
2022-11-23T07:44:07.378Z,7.10
2022-11-23T07:46:34.541Z,7.15
2022-11-23T07:49:01.663Z,7.17
2022-11-23T07:51:29.749Z,7.22
2022-11-23T07:53:57.130Z,7.25
2022-11-23T07:56:24.430Z,7.29
2022-11-23T07:58:51.550Z,7.34
2022-11-23T08:01:19.947Z,7.38
2022-11-23T08:03:48.408Z,7.42
2022-11-23T08:06:16.721Z,7.47
2022-11-23T08:08:43.742Z,7.41
2022-11-23T08:11:11.369Z,7.52
2022-11-23T08:13:38.439Z,7.57
2022-11-23T08:16:05.847Z,7.62
2022-11-23T08:18:33.044Z,7.66
2022-11-23T08:21:00.722Z,7.72
2022-11-23T08:23:28.170Z,7.76
2022-11-23T08:25:55.390Z,7.81
2022-11-23T08:28:22.679Z,7.87
2022-11-23T08:30:50.018Z,7.92
2022-11-23T08:33:17.495Z,7.98
2022-11-23T08:35:44.680Z,8.05
2022-11-23T08:38:12.182Z,8.11
2022-11-23T08:40:39.861Z,8.18
2022-11-23T08:43:07.003Z,8.26
2022-11-23T08:45:34.104Z,8.34
2022-11-23T08:48:02.551Z,8.43
2022-11-23T08:50:30.111Z,8.52
2022-11-23T08:52:58.561Z,8.61
2022-11-23T08:55:27.476Z,8.68
2022-11-23T08:57:58.556Z,8.76
2022-11-23T09:00:26.222Z,8.85
2022-11-23T09:02:53.596Z,8.94
2022-11-23T09:05:20.722Z,9.01
2022-11-23T09:07:48.698Z,9.09
2022-11-23T09:10:18.756Z,9.13
2022-11-23T09:12:47.537Z,9.19
2022-11-23T09:15:15.086Z,9.25
2022-11-23T09:17:42.354Z,9.29
2022-11-23T09:20:10.240Z,9.34
2022-11-23T09:22:37.788Z,9.39
2022-11-23T09:25:05.612Z,9.45
2022-11-23T09:27:33.196Z,9.51
2022-11-23T09:30:00.436Z,9.56
2022-11-23T09:32:27.537Z,9.61
2022-11-23T09:34:54.662Z,9.67
2022-11-23T09:37:21.749Z,9.69
2022-11-23T09:39:48.825Z,9.74
2022-11-23T09:42:30.553Z,9.78
2022-11-23T09:45:19.132Z,9.79
2022-11-23T09:47:54.401Z,9.85
2022-11-23T09:50:50.282Z,9.89
2022-11-23T09:53:25.030Z,9.93
2022-11-23T09:55:55.960Z,9.97
2022-11-23T09:58:30.918Z,10.02
2022-11-23T10:01:04.839Z,10.05
2022-11-23T10:03:38.097Z,10.07
2022-11-23T10:06:10.921Z,10.09
2022-11-23T10:09:02.011Z,10.06
2022-11-23T10:11:50.909Z,10.07
2022-11-23T10:14:53.278Z,10.06
2022-11-23T10:17:58.613Z,10.04
2022-11-23T10:20:51.349Z,9.99
2022-11-23T10:23:36.112Z,9.98
2022-11-23T10:26:03.236Z,9.96
2022-11-23T10:28:32.268Z,9.90
2022-11-23T10:31:20.256Z,9.86
2022-11-23T10:34:13.519Z,9.80
2022-11-23T10:36:41.364Z,9.79
2022-11-23T10:39:21.351Z,9.74
2022-11-23T10:41:49.709Z,9.73
2022-11-23T10:44:30.411Z,9.72
2022-11-23T10:46:58.987Z,9.73
2022-11-23T10:49:27.433Z,9.73
2022-11-23T10:52:17.205Z,9.74
2022-11-23T10:54:47.318Z,9.76
2022-11-23T10:57:33.552Z,9.77
2022-11-23T11:00:02.613Z,9.76
2022-11-23T11:02:48.720Z,9.79
2022-11-23T11:06:11.010Z,9.84
2022-11-23T11:08:34.746Z,9.81
2022-11-23T11:11:11.768Z,9.78
2022-11-23T11:13:44.560Z,9.75
2022-11-23T11:16:34.658Z,9.77
2022-11-23T11:19:26.729Z,9.76
2022-11-23T11:21:54.195Z,9.82
2022-11-23T11:24:38.391Z,9.83
2022-11-23T11:27:13.288Z,9.90
2022-11-23T11:29:48.934Z,9.93
2022-11-23T11:32:37.549Z,9.94
2022-11-23T11:35:25.319Z,9.93
2022-11-23T11:37:57.077Z,9.95
2022-11-23T11:40:48.938Z,9.97
2022-11-23T11:43:39.591Z,9.94
2022-11-23T11:46:29.047Z,9.91
2022-11-23T11:49:18.207Z,9.89
2022-11-23T11:51:59.308Z,9.88
2022-11-23T11:54:44.364Z,9.87
2022-11-23T11:57:17.467Z,9.88
2022-11-23T11:59:48.010Z,9.91
2022-11-23T12:02:50.750Z,9.89
2022-11-23T12:05:25.192Z,9.96
2022-11-23T12:07:54.812Z,10.00
2022-11-23T12:10:27.984Z,10.06
2022-11-23T12:12:55.582Z,10.11
2022-11-23T12:15:48.805Z,10.17
2022-11-23T12:18:42.402Z,10.23
2022-11-23T12:21:39.781Z,10.27
2022-11-23T12:24:20.718Z,10.33
2022-11-23T12:26:56.799Z,10.36
2022-11-23T12:29:39.259Z,10.39
2022-11-23T12:32:15.272Z,10.38
2022-11-23T12:35:04.145Z,10.39
2022-11-23T12:37:49.519Z,10.41
2022-11-23T12:40:25.448Z,10.39
2022-11-23T12:43:01.634Z,10.40
2022-11-23T12:45:53.805Z,10.41
2022-11-23T12:48:35.925Z,10.40
2022-11-23T12:52:04.550Z,10.37
2022-11-23T12:54:47.842Z,10.37
2022-11-23T12:57:24.769Z,10.36
2022-11-23T13:00:00.644Z,10.36
2022-11-23T13:02:58.070Z,10.34
2022-11-23T13:05:55.122Z,10.33
2022-11-23T13:09:03.921Z,10.32
2022-11-23T13:11:53.660Z,10.33
2022-11-23T13:14:33.236Z,10.32
2022-11-23T13:17:41.553Z,10.25
2022-11-23T13:20:28.919Z,10.24
2022-11-23T13:22:58.312Z,10.19
2022-11-23T13:25:28.634Z,10.15
2022-11-23T13:27:59.075Z,10.10
2022-11-23T13:31:07.273Z,10.04
2022-11-23T13:33:30.402Z,10.00
2022-11-23T13:36:03.811Z,9.96
2022-11-23T13:38:40.137Z,9.92
2022-11-23T13:41:33.373Z,9.88
2022-11-23T13:44:19.001Z,9.85
2022-11-23T13:47:07.690Z,9.84
2022-11-23T13:49:43.586Z,9.83
2022-11-23T13:52:22.843Z,9.79
2022-11-23T13:55:13.052Z,9.77
2022-11-23T13:57:46.991Z,9.76
2022-11-23T14:00:44.149Z,9.74
2022-11-23T14:03:42.334Z,9.70
2022-11-23T14:06:34.623Z,9.66
2022-11-23T14:09:19.321Z,9.62
2022-11-23T14:12:05.252Z,9.58
2022-11-23T14:14:49.433Z,9.56
2022-11-23T14:17:48.547Z,9.54
2022-11-23T14:20:52.677Z,9.52
2022-11-23T14:23:43.326Z,9.49
2022-11-23T14:26:13.010Z,9.46
2022-11-23T14:29:01.359Z,9.42
2022-11-23T14:31:37.015Z,9.38
2022-11-23T14:34:32.547Z,9.35
2022-11-23T14:37:13.688Z,9.30
2022-11-23T14:40:08.730Z,9.23
2022-11-23T14:42:43.033Z,9.19
2022-11-23T14:45:15.148Z,9.15
2022-11-23T14:47:42.437Z,9.12
2022-11-23T14:50:29.146Z,9.06
2022-11-23T14:52:59.029Z,9.01
2022-11-23T14:55:28.849Z,8.99
2022-11-23T14:58:03.625Z,8.93
2022-11-23T15:00:41.022Z,8.88
2022-11-23T15:06:17.286Z,8.78
2022-11-23T15:08:54.203Z,8.71
2022-11-23T15:11:25.557Z,8.66
2022-11-23T15:13:54.679Z,8.60
2022-11-23T15:16:21.996Z,8.56
2022-11-23T15:18:49.439Z,8.48
2022-11-23T15:21:28.049Z,8.39
2022-11-23T15:23:57.214Z,8.34
2022-11-23T15:26:47.477Z,8.27
2022-11-23T15:29:29.393Z,8.18
2022-11-23T15:32:22.366Z,8.11
2022-11-23T15:34:43.924Z,8.03
2022-11-23T15:37:11.158Z,7.94
2022-11-23T15:39:38.761Z,7.87
2022-11-23T15:42:06.772Z,7.79
2022-11-23T15:44:38.402Z,7.72
2022-11-23T15:47:07.264Z,7.64
2022-11-23T15:49:38.710Z,7.56
2022-11-23T15:52:06.459Z,7.49
2022-11-23T15:54:38.584Z,7.40
2022-11-23T15:57:15.409Z,7.33
2022-11-23T16:00:00.614Z,7.23
2022-11-23T16:02:30.450Z,7.18
2022-11-23T16:05:13.746Z,7.08
2022-11-23T16:07:56.554Z,7.00
2022-11-23T16:10:34.066Z,6.94
2022-11-23T16:13:03.622Z,6.89
2022-11-23T16:15:40.317Z,6.81
2022-11-23T16:18:13.099Z,6.78
2022-11-23T16:20:47.941Z,6.74
2022-11-23T16:23:20.692Z,6.72
2022-11-23T16:25:56.884Z,6.68
2022-11-23T16:28:33.030Z,6.65
2022-11-23T16:31:00.894Z,6.62
2022-11-23T16:33:28.715Z,6.60
2022-11-23T16:35:56.241Z,6.56
2022-11-23T16:38:24.158Z,6.54
2022-11-23T16:40:51.214Z,6.52
2022-11-23T16:43:18.732Z,6.52
2022-11-23T16:45:49.077Z,6.48
2022-11-23T16:48:24.709Z,6.45
2022-11-23T16:50:53.337Z,6.43
2022-11-23T16:53:20.996Z,6.39
2022-11-23T16:55:55.778Z,6.35
2022-11-23T16:58:23.960Z,6.30
2022-11-23T17:00:51.017Z,6.24
2022-11-23T17:03:21.211Z,6.18
2022-11-23T17:05:48.594Z,6.13
2022-11-23T17:08:23.133Z,6.09
2022-11-23T17:10:51.434Z,6.04
2022-11-23T17:13:29.380Z,5.96
2022-11-23T17:15:56.637Z,5.92
2022-11-23T17:18:23.703Z,5.90
2022-11-23T17:20:50.811Z,5.81
2022-11-23T17:23:18.086Z,5.77
2022-11-23T17:25:45.154Z,5.75
2022-11-23T17:28:17.852Z,5.70
2022-11-23T17:30:44.961Z,5.67
2022-11-23T17:33:12.125Z,5.63
2022-11-23T17:35:40.048Z,5.59
2022-11-23T17:38:14.123Z,5.53
2022-11-23T17:40:41.222Z,5.51
2022-11-23T17:43:13.697Z,5.45
2022-11-23T17:45:41.427Z,5.42
2022-11-23T17:48:12.095Z,5.36
2022-11-23T17:50:39.481Z,5.33
2022-11-23T17:53:06.939Z,5.29
2022-11-23T17:55:34.143Z,5.25
2022-11-23T17:58:01.244Z,5.20
2022-11-23T18:00:29.662Z,5.17
2022-11-23T18:02:56.748Z,5.13
2022-11-23T18:05:23.870Z,5.10
2022-11-23T18:07:51.117Z,5.05
2022-11-23T18:13:11.366Z,4.96
2022-11-23T18:15:38.535Z,4.91
2022-11-23T18:18:05.666Z,4.89
2022-11-23T18:20:32.808Z,4.83
2022-11-23T18:23:00.047Z,4.79
2022-11-23T18:25:27.074Z,4.73
2022-11-23T18:27:54.149Z,4.69
2022-11-23T18:30:21.420Z,4.66
2022-11-23T18:32:48.557Z,4.62
2022-11-23T18:35:15.776Z,4.58
2022-11-23T18:37:42.795Z,4.56
2022-11-23T18:40:10.296Z,4.52
2022-11-23T18:42:37.348Z,4.48
2022-11-23T18:45:05.039Z,4.45
2022-11-23T18:47:32.099Z,4.41
2022-11-23T18:50:03.435Z,4.38
2022-11-23T18:52:33.424Z,4.34
2022-11-23T18:55:00.545Z,4.31
2022-11-23T18:57:27.610Z,4.29
2022-11-23T18:59:58.845Z,4.26
2022-11-23T19:02:26.672Z,4.24
2022-11-23T19:04:53.929Z,4.22
2022-11-23T19:07:26.583Z,4.20
2022-11-23T19:09:54.356Z,4.18
2022-11-23T19:12:21.427Z,4.18
2022-11-23T19:14:48.606Z,4.18
2022-11-23T19:17:16.586Z,4.19
2022-11-23T19:19:43.668Z,4.22
2022-11-23T19:22:10.749Z,4.24
2022-11-23T19:24:37.885Z,4.29
2022-11-23T19:27:04.943Z,4.33
2022-11-23T19:29:32.044Z,4.40
2022-11-23T19:31:59.173Z,4.46
2022-11-23T19:34:26.232Z,4.52
2022-11-23T19:36:53.396Z,4.59
2022-11-23T19:39:20.388Z,4.66
2022-11-23T19:41:47.454Z,4.72
2022-11-23T19:44:14.781Z,4.80
2022-11-23T19:46:41.857Z,4.85
2022-11-23T19:49:09.061Z,4.91
2022-11-23T19:51:36.211Z,4.97
2022-11-23T19:54:03.512Z,5.03
2022-11-23T19:56:30.608Z,5.08
2022-11-23T19:58:59.765Z,5.13
2022-11-23T20:01:29.601Z,5.17
2022-11-23T20:04:08.324Z,5.23
2022-11-23T20:06:38.255Z,5.26
2022-11-23T20:09:25.694Z,5.28
2022-11-23T20:11:52.936Z,5.32
2022-11-23T20:14:20.011Z,5.37
2022-11-23T20:16:47.243Z,5.44
2022-11-23T20:19:14.424Z,5.48
2022-11-23T20:21:41.572Z,5.53
2022-11-23T20:24:12.259Z,5.57
2022-11-23T20:26:40.594Z,5.62
2022-11-23T20:29:08.309Z,5.66
2022-11-23T20:31:36.647Z,5.70
2022-11-23T20:34:07.082Z,5.70
2022-11-23T20:36:36.781Z,5.75
2022-11-23T20:39:06.455Z,5.76
2022-11-23T20:41:35.795Z,5.78
2022-11-23T20:44:11.487Z,5.80
2022-11-23T20:47:00.712Z,5.82
2022-11-23T20:49:25.854Z,5.85
2022-11-23T20:51:52.952Z,5.86
2022-11-23T20:54:20.002Z,5.89
2022-11-23T20:56:47.084Z,5.90
2022-11-23T20:59:14.574Z,5.89
2022-11-23T21:01:41.705Z,5.91
2022-11-23T21:04:09.009Z,5.90
2022-11-23T21:06:39.361Z,5.88
2022-11-23T21:09:08.426Z,5.88
2022-11-23T21:11:36.005Z,5.87
2022-11-23T21:14:05.334Z,5.89
2022-11-23T21:16:44.281Z,5.88
2022-11-23T21:19:12.850Z,5.90
2022-11-23T21:21:40.242Z,5.90
2022-11-23T21:24:07.608Z,5.89
2022-11-23T21:26:35.025Z,5.93
2022-11-23T21:29:02.110Z,5.91
2022-11-23T21:31:29.839Z,5.90
2022-11-23T21:33:57.080Z,5.91
2022-11-23T21:36:24.094Z,5.91
2022-11-23T21:38:51.302Z,5.92
2022-11-23T21:41:18.395Z,5.92
2022-11-23T21:43:45.454Z,5.95
2022-11-23T21:46:12.947Z,5.96
2022-11-23T21:48:40.239Z,5.97
2022-11-23T21:51:10.908Z,6.01
2022-11-23T21:53:38.367Z,6.03
2022-11-23T21:56:11.789Z,6.05
2022-11-23T21:58:39.425Z,6.08
2022-11-23T22:01:06.612Z,6.10
2022-11-23T22:03:57.603Z,6.13
2022-11-23T22:06:24.756Z,6.17
2022-11-23T22:08:53.841Z,6.20
2022-11-23T22:11:23.446Z,6.22
2022-11-23T22:13:55.349Z,6.24
2022-11-23T22:16:27.949Z,6.26
2022-11-23T22:18:56.298Z,6.28
2022-11-23T22:21:28.928Z,6.29
2022-11-23T22:23:56.113Z,6.32
2022-11-23T22:26:23.291Z,6.33
2022-11-23T22:28:51.399Z,6.38
2022-11-23T22:31:19.825Z,6.31
2022-11-23T22:33:47.361Z,6.40
2022-11-23T22:36:15.882Z,6.43
2022-11-23T22:38:43.716Z,6.46
2022-11-23T22:41:13.957Z,6.47
2022-11-23T22:43:42.031Z,6.49
2022-11-23T22:46:12.266Z,6.52
2022-11-23T22:48:41.087Z,6.53
2022-11-23T22:51:10.585Z,6.56
2022-11-23T22:53:43.907Z,6.59
2022-11-23T22:56:16.832Z,6.59
2022-11-23T22:58:45.298Z,6.62
2022-11-23T23:01:14.840Z,6.64
2022-11-23T23:03:42.445Z,6.67
2022-11-23T23:06:21.064Z,6.70
2022-11-23T23:08:53.014Z,6.76
2022-11-23T23:11:20.226Z,6.81
2022-11-23T23:13:47.541Z,6.84
2022-11-23T23:16:14.742Z,6.90
2022-11-23T23:18:42.878Z,6.94
2022-11-23T23:21:15.417Z,6.98
2022-11-23T23:23:44.858Z,7.05
2022-11-23T23:26:12.975Z,7.11
2022-11-23T23:28:40.061Z,7.08
2022-11-23T23:31:09.387Z,7.20
2022-11-23T23:33:37.164Z,7.26
2022-11-23T23:36:08.518Z,7.30
2022-11-23T23:38:36.153Z,7.38
2022-11-23T23:41:04.055Z,7.42
2022-11-23T23:43:31.215Z,7.48
2022-11-23T23:45:59.887Z,7.53
2022-11-23T23:48:35.315Z,7.58
2022-11-23T23:51:13.272Z,7.65
2022-11-23T23:53:40.634Z,7.63
2022-11-23T23:56:13.827Z,7.75
2022-11-23T23:58:41.113Z,7.80
